Time;durP1;ratioP1;P1;durP2;ratioP2;P2;SDS_P1;SDS_P2;PMS_P1;PMS_P2;Temp;Humidity;BMP_temperature;BMP_pressure;BME280_temperature;BME280_humidity;BME280_pressure;Samples;Min_cycle;Max_cycle;Signal;HPM_P1;HPM_P2
2024/04/04 00:01:59;;;;;;;3.80;1.60;;;;;;;10.54;72.43;95911.00;4950438;28;20205;-66
2024/04/04 00:04:28;;;;;;;4.53;1.93;;;;;;;10.64;71.86;95908.72;4958947;28;20626;-70
2024/04/04 00:06:54;;;;;;;2.60;1.10;;;;;;;10.58;72.38;95910.75;4964024;28;20208;-67
2024/04/04 00:09:19;;;;;;;4.43;1.40;;;;;;;10.52;72.74;95904.97;4969131;28;21088;-68
2024/04/04 00:11:44;;;;;;;1.93;1.03;;;;;;;10.49;72.75;95905.13;4970249;28;20547;-68
2024/04/04 00:14:10;;;;;;;2.80;1.20;;;;;;;10.45;72.76;95906.22;4959195;28;20213;-68
2024/04/04 00:16:36;;;;;;;3.60;1.30;;;;;;;10.33;73.16;95908.53;4969310;28;20818;-68
2024/04/04 00:19:02;;;;;;;2.60;1.20;;;;;;;10.47;72.71;95915.69;4943425;28;20252;-67
2024/04/04 00:21:28;;;;;;;5.50;1.20;;;;;;;10.46;72.83;95900.88;4962029;28;20472;-69
2024/04/04 00:23:53;;;;;;;2.93;1.53;;;;;;;10.40;73.16;95910.84;4969729;28;20912;-69
2024/04/04 00:26:20;;;;;;;1.90;1.40;;;;;;;10.55;72.48;95904.78;4970065;28;20359;-69
2024/04/04 00:28:46;;;;;;;2.50;1.43;;;;;;;10.44;72.92;95901.88;4961193;28;20181;-69
2024/04/04 00:31:11;;;;;;;1.63;1.27;;;;;;;10.48;72.64;95898.19;4961796;28;20856;-69
2024/04/04 00:33:37;;;;;;;2.10;1.37;;;;;;;10.47;73.31;95899.13;4951564;28;20610;-69
2024/04/04 00:36:02;;;;;;;2.23;1.40;;;;;;;10.43;72.78;95903.66;4964116;28;20211;-67
2024/04/04 00:38:28;;;;;;;2.60;1.57;;;;;;;10.46;73.10;95897.41;4959977;28;20282;-69
2024/04/04 00:40:53;;;;;;;2.43;1.30;;;;;;;10.45;73.18;95900.97;4961146;28;20637;-69
2024/04/04 00:43:19;;;;;;;2.63;1.43;;;;;;;10.43;73.10;95892.31;4931467;29;20277;-68
2024/04/04 00:45:45;;;;;;;5.60;2.10;;;;;;;10.37;73.27;95902.22;4931876;29;20187;-68
2024/04/04 00:48:10;;;;;;;2.87;1.40;;;;;;;10.34;73.51;95910.22;4933067;28;20190;-68
2024/04/04 00:50:38;;;;;;;1.80;1.20;;;;;;;10.39;73.38;95907.34;4960752;28;20430;-67
2024/04/04 00:53:04;;;;;;;1.60;1.20;;;;;;;10.42;72.90;95916.84;4952105;28;20186;-69
2024/04/04 00:55:30;;;;;;;2.70;1.27;;;;;;;10.39;72.89;95923.09;4952237;29;20488;-68
2024/04/04 00:57:56;;;;;;;4.90;1.63;;;;;;;10.38;73.45;95921.41;4949729;28;20434;-70
2024/04/04 01:00:23;;;;;;;1.87;1.27;;;;;;;10.36;73.65;95923.25;4950842;28;20188;-69
2024/04/04 01:02:51;;;;;;;3.20;1.40;;;;;;;10.44;73.62;95928.09;4948420;28;20725;-69
2024/04/04 01:05:16;;;;;;;3.37;1.50;;;;;;;10.43;73.49;95927.25;4948284;28;20402;-68
2024/04/04 01:07:44;;;;;;;1.73;1.10;;;;;;;10.44;73.39;95928.97;4965684;28;20789;-69
2024/04/04 01:10:09;;;;;;;1.57;1.37;;;;;;;10.58;72.82;95923.00;4956823;28;20300;-68
2024/04/04 01:12:35;;;;;;;2.63;1.53;;;;;;;10.50;73.28;95931.28;4968159;28;20548;-69
2024/04/04 01:15:01;;;;;;;2.57;1.33;;;;;;;10.55;72.77;95933.66;4968808;28;20730;-68
2024/04/04 01:17:27;;;;;;;4.00;1.20;;;;;;;10.50;73.37;95935.69;4969016;28;20209;-69
2024/04/04 01:19:53;;;;;;;3.00;1.20;;;;;;;10.44;73.64;95941.22;4951848;28;20955;-69
2024/04/04 01:22:18;;;;;;;2.37;1.40;;;;;;;10.42;73.85;95956.19;4952761;28;20929;-69
2024/04/04 01:24:44;;;;;;;3.60;2.13;;;;;;;10.39;74.16;95954.56;4949786;28;20488;-68
2024/04/04 01:27:09;;;;;;;3.50;1.30;;;;;;;10.40;73.99;95952.81;4950054;28;20182;-67
2024/04/04 01:29:35;;;;;;;2.20;1.60;;;;;;;10.42;73.92;95953.56;4956788;28;20248;-69
2024/04/04 01:32:00;;;;;;;3.40;1.80;;;;;;;10.48;73.17;95948.03;4955412;28;20602;-67
2024/04/04 01:34:25;;;;;;;4.00;1.50;;;;;;;10.56;73.44;95953.75;4966245;28;20173;-69
2024/04/04 01:36:53;;;;;;;2.83;1.77;;;;;;;10.57;73.62;95958.03;4969167;28;20252;-70
2024/04/04 01:39:18;;;;;;;3.10;1.43;;;;;;;10.59;73.39;95953.56;4957051;28;20186;-68
2024/04/04 01:41:45;;;;;;;1.70;1.17;;;;;;;10.68;73.19;95958.34;4961244;28;20452;-70
2024/04/04 01:44:11;;;;;;;2.13;1.27;;;;;;;10.64;73.45;95964.69;4968666;28;20224;-68
2024/04/04 01:46:37;;;;;;;4.40;1.33;;;;;;;10.60;73.63;95960.50;4970036;28;20440;-69
2024/04/04 01:49:02;;;;;;;2.03;1.27;;;;;;;10.63;73.27;95968.25;4975880;28;20613;-69
2024/04/04 01:51:27;;;;;;;2.10;1.23;;;;;;;10.62;73.79;95961.28;4962833;28;20241;-70
2024/04/04 01:53:53;;;;;;;2.07;1.30;;;;;;;10.57;73.50;95965.91;4944262;29;20531;-69
2024/04/04 01:56:18;;;;;;;3.93;1.27;;;;;;;10.67;73.69;95964.50;4941994;29;20690;-69
2024/04/04 01:58:43;;;;;;;2.43;1.30;;;;;;;10.72;73.32;95978.25;4941013;28;20288;-70
2024/04/04 02:01:09;;;;;;;2.60;1.50;;;;;;;10.63;73.36;95968.25;4960455;28;20208;-70
2024/04/04 02:03:34;;;;;;;3.70;1.60;;;;;;;10.68;73.49;95970.63;4969358;28;20329;-70
2024/04/04 02:05:59;;;;;;;6.10;1.30;;;;;;;10.69;73.36;95972.31;4968652;28;20807;-67
2024/04/04 02:08:25;;;;;;;3.20;1.60;;;;;;;10.74;73.33;95965.88;4955237;28;20182;-69
2024/04/04 02:10:50;;;;;;;2.40;1.40;;;;;;;10.75;72.86;95972.00;4949695;28;20705;-68
2024/04/04 02:13:15;;;;;;;1.67;1.10;;;;;;;10.71;73.72;95970.47;4949082;28;20170;-69
2024/04/04 02:15:41;;;;;;;1.80;1.37;;;;;;;10.73;73.50;95969.47;4947778;28;20670;-68
2024/04/04 02:18:07;;;;;;;4.43;1.60;;;;;;;10.74;73.06;95976.38;4949333;28;20190;-67
2024/04/04 02:20:33;;;;;;;3.40;1.30;;;;;;;10.71;73.53;95980.97;4959002;28;20189;-68
2024/04/04 02:22:59;;;;;;;4.63;1.30;;;;;;;10.72;73.48;95978.25;4967967;28;20728;-70
2024/04/04 02:25:24;;;;;;;1.87;1.50;;;;;;;10.69;73.31;95981.03;4961335;28;20507;-69
2024/04/04 02:27:50;;;;;;;2.53;1.23;;;;;;;10.65;73.45;95989.97;4959564;28;20208;-69
2024/04/04 02:30:15;;;;;;;4.60;1.23;;;;;;;10.65;74.13;95976.84;4957289;28;20568;-69
2024/04/04 02:32:41;;;;;;;3.23;1.23;;;;;;;10.71;73.32;95980.97;4967638;28;20201;-69
2024/04/04 02:35:08;;;;;;;2.30;1.30;;;;;;;10.74;73.46;95981.63;4967700;28;20201;-69
2024/04/04 02:37:34;;;;;;;2.20;1.40;;;;;;;10.76;73.49;95982.41;4968427;28;20192;-67
2024/04/04 02:39:59;;;;;;;3.07;1.40;;;;;;;10.73;73.57;95979.97;4957863;28;20450;-67
2024/04/04 02:42:25;;;;;;;2.90;1.67;;;;;;;10.67;73.48;95985.50;4965533;28;20710;-68
2024/04/04 02:44:50;;;;;;;3.13;1.57;;;;;;;10.66;73.97;95983.81;4966280;28;20185;-68
2024/04/04 02:47:15;;;;;;;3.33;1.57;;;;;;;10.67;73.79;95985.50;4962924;28;20185;-68
2024/04/04 02:49:41;;;;;;;3.83;1.63;;;;;;;10.73;73.65;95989.63;4970724;28;20687;-70
2024/04/04 02:52:06;;;;;;;6.37;1.67;;;;;;;10.69;73.69;95991.53;4966284;28;20197;-70
2024/04/04 02:54:32;;;;;;;4.73;1.70;;;;;;;10.77;73.77;95991.13;4957838;28;20333;-69
2024/04/04 02:56:57;;;;;;;5.60;1.50;;;;;;;10.74;73.85;95992.13;4962895;28;20271;-68
2024/04/04 02:59:23;;;;;;;6.00;1.30;;;;;;;10.74;73.95;95989.50;4974740;28;20177;-69
2024/04/04 03:01:49;;;;;;;2.43;1.63;;;;;;;10.72;74.28;95991.38;4971511;28;20736;-70
2024/04/04 03:04:14;;;;;;;2.43;1.93;;;;;;;10.75;73.82;95985.97;4969252;28;20421;-69
2024/04/04 03:06:39;;;;;;;3.07;1.43;;;;;;;10.73;73.80;95990.44;4959573;28;20209;-70
2024/04/04 03:09:08;;;;;;;3.83;1.50;;;;;;;10.61;74.34;95998.94;4960858;28;20185;-70
2024/04/04 03:11:34;;;;;;;2.00;1.60;;;;;;;10.71;74.21;95987.06;4970735;28;20251;-69
2024/04/04 03:14:00;;;;;;;2.97;2.13;;;;;;;10.64;74.73;95987.44;4971168;28;20436;-69
2024/04/04 03:16:25;;;;;;;2.07;1.50;;;;;;;10.77;73.70;95993.75;4969854;28;20976;-68
2024/04/04 03:18:51;;;;;;;1.60;1.50;;;;;;;10.73;73.61;95979.97;4947953;28;20193;-70
2024/04/04 03:21:16;;;;;;;1.93;1.10;;;;;;;10.61;74.59;95991.09;4967717;28;20197;-68
2024/04/04 03:23:41;;;;;;;4.83;1.83;;;;;;;10.63;74.53;95994.47;4971588;28;20236;-70
2024/04/04 03:26:07;;;;;;;1.63;1.30;;;;;;;10.65;74.13;95992.59;4977922;28;20170;-69
2024/04/04 03:28:32;;;;;;;2.90;1.40;;;;;;;10.59;75.03;95983.28;4940476;29;20198;-70
2024/04/04 03:30:58;;;;;;;2.27;1.33;;;;;;;10.58;74.61;95975.47;4932289;29;20199;-70
2024/04/04 03:33:23;;;;;;;2.60;1.40;;;;;;;10.44;75.03;95980.56;4931245;28;20296;-69
2024/04/04 03:35:48;;;;;;;5.37;2.13;;;;;;;10.48;74.95;95977.72;4962006;28;20559;-69
2024/04/04 03:38:14;;;;;;;5.20;2.40;;;;;;;10.45;75.07;95977.88;4959516;28;20194;-69
2024/04/04 03:40:40;;;;;;;2.70;1.10;;;;;;;10.41;75.29;95988.59;4970676;28;20169;-69
2024/04/04 03:43:06;;;;;;;2.77;1.20;;;;;;;10.45;74.83;95984.91;4971382;28;20180;-68
2024/04/04 03:45:38;;;;;;;2.13;1.20;;;;;;;10.36;75.18;95987.03;4970858;28;20500;-68
2024/04/04 03:48:04;;;;;;;3.27;1.60;;;;;;;10.41;75.41;95993.84;4960554;28;20451;-69
2024/04/04 03:50:29;;;;;;;2.27;1.50;;;;;;;10.40;75.54;95986.91;4968980;28;20440;-68
2024/04/04 03:52:54;;;;;;;3.47;1.60;;;;;;;10.37;75.36;95990.53;4962088;28;20193;-70
2024/04/04 03:55:20;;;;;;;3.47;1.20;;;;;;;10.34;75.39;95990.66;4961005;28;20217;-68
2024/04/04 03:57:45;;;;;;;1.70;1.40;;;;;;;10.23;76.02;95983.31;4960031;28;20268;-69
2024/04/04 04:00:11;;;;;;;5.00;1.20;;;;;;;10.30;75.72;95982.13;4964454;28;20181;-68
2024/04/04 04:02:37;;;;;;;2.23;1.63;;;;;;;10.35;75.15;95980.13;4932121;29;20201;-69
2024/04/04 04:05:03;;;;;;;2.00;1.40;;;;;;;10.40;75.22;95979.03;4933075;29;20698;-70
2024/04/04 04:07:28;;;;;;;6.00;1.40;;;;;;;10.32;75.07;95982.03;4953305;28;20621;-69
2024/04/04 04:09:54;;;;;;;1.83;1.20;;;;;;;10.41;75.40;95980.72;4963670;28;20436;-69
2024/04/04 04:12:19;;;;;;;5.73;1.37;;;;;;;10.35;75.80;95974.03;4971436;28;20268;-70
2024/04/04 04:14:45;;;;;;;9.60;1.77;;;;;;;10.27;75.68;95978.75;4970749;28;20617;-70
2024/04/04 04:17:10;;;;;;;2.70;1.50;;;;;;;10.27;75.58;95979.59;4958879;28;20184;-70
2024/04/04 04:19:37;;;;;;;5.43;1.37;;;;;;;10.29;75.51;95988.28;4962278;28;20231;-69
2024/04/04 04:22:02;;;;;;;6.13;1.73;;;;;;;10.36;75.18;95981.81;4970606;28;20235;-69
2024/04/04 04:24:28;;;;;;;9.30;1.67;;;;;;;10.33;74.95;95978.50;4970284;28;21390;-69
2024/04/04 04:26:54;;;;;;;11.23;2.53;;;;;;;10.29;75.69;95980.41;4962625;28;20174;-70
2024/04/04 04:29:19;;;;;;;3.27;1.60;;;;;;;10.22;75.68;95984.22;4962494;28;20243;-67
2024/04/04 04:31:45;;;;;;;6.43;2.07;;;;;;;10.27;75.66;95974.34;4971227;28;20759;-69
2024/04/04 04:34:11;;;;;;;2.53;1.40;;;;;;;10.43;75.01;95971.84;4983600;28;20189;-69
2024/04/04 04:36:44;;;;;;;5.60;1.87;;;;;;;10.25;75.30;95970.13;4965916;28;20199;-68
2024/04/04 04:39:10;;;;;;;3.10;2.00;;;;;;;10.23;75.41;95980.69;4962924;28;20192;-69
2024/04/04 04:41:36;;;;;;;2.83;1.50;;;;;;;10.24;75.35;95986.78;4965285;28;20465;-70
2024/04/04 04:44:01;;;;;;;3.67;1.70;;;;;;;10.22;76.02;95993.88;4953774;28;20185;-68
2024/04/04 04:46:26;;;;;;;7.10;1.60;;;;;;;10.16;76.11;95988.00;4965230;28;20217;-67
2024/04/04 04:48:52;;;;;;;2.37;1.67;;;;;;;10.21;75.79;95995.66;4969770;28;20196;-67
2024/04/04 04:51:17;;;;;;;4.80;1.73;;;;;;;10.14;76.18;95995.09;4970303;28;20202;-68
2024/04/04 04:53:43;;;;;;;6.73;2.37;;;;;;;10.22;75.92;95989.47;4970297;28;20185;-67
2024/04/04 04:56:08;;;;;;;7.60;2.30;;;;;;;10.28;75.81;95983.09;4967134;28;20216;-69
2024/04/04 04:58:34;;;;;;;2.77;1.40;;;;;;;10.33;75.46;95995.06;4968707;28;20191;-69
2024/04/04 05:00:59;;;;;;;5.90;1.97;;;;;;;10.34;75.65;95988.88;4971165;28;20818;-67
2024/04/04 05:03:25;;;;;;;3.60;1.43;;;;;;;10.30;75.62;95995.25;4968197;28;20174;-68
2024/04/04 05:05:51;;;;;;;4.03;1.20;;;;;;;10.38;75.54;95979.13;4962322;28;20272;-68
2024/04/04 05:08:18;;;;;;;4.43;2.57;;;;;;;10.30;75.41;95982.13;4968798;28;20531;-69
2024/04/04 05:10:43;;;;;;;13.00;1.97;;;;;;;10.36;75.16;95975.72;4951017;28;20541;-69
2024/04/04 05:13:09;;;;;;;2.87;1.50;;;;;;;10.44;75.11;95968.31;4949261;28;20420;-68
2024/04/04 05:15:47;;;;;;;16.87;1.97;;;;;;;10.47;74.81;95975.19;4949698;28;20252;-69
2024/04/04 05:18:12;;;;;;;2.33;1.67;;;;;;;10.50;74.75;95973.25;4968014;28;20267;-70
2024/04/04 05:20:38;;;;;;;8.17;2.23;;;;;;;10.57;74.58;95973.78;4967849;28;20913;-69
2024/04/04 05:23:03;;;;;;;5.40;2.17;;;;;;;10.57;74.96;95976.41;4967714;28;20181;-68
2024/04/04 05:25:29;;;;;;;3.50;2.57;;;;;;;10.64;74.14;95966.47;4968345;28;20205;-69
2024/04/04 05:27:54;;;;;;;16.00;3.90;;;;;;;10.69;74.15;95975.78;4966812;28;20184;-69
2024/04/04 05:30:20;;;;;;;3.37;2.20;;;;;;;10.66;73.96;95973.31;4966649;28;20196;-67
2024/04/04 05:32:45;;;;;;;7.10;1.80;;;;;;;10.70;73.98;95979.25;4968049;28;20211;-68
2024/04/04 05:35:11;;;;;;;3.67;1.90;;;;;;;10.78;73.78;95980.56;4978218;28;20220;-72
2024/04/04 05:37:36;;;;;;;5.37;1.90;;;;;;;10.77;73.69;95978.88;4974454;28;20224;-71
2024/04/04 05:40:04;;;;;;;3.43;2.10;;;;;;;10.66;74.01;95981.19;4976083;28;20817;-72
2024/04/04 05:42:32;;;;;;;4.60;2.17;;;;;;;10.77;73.16;95976.25;4999000;28;20704;-70
2024/04/04 05:44:58;;;;;;;3.80;1.90;;;;;;;10.68;73.56;95973.25;4971094;28;20460;-70
2024/04/04 05:47:23;;;;;;;7.47;3.20;;;;;;;10.67;73.94;95980.25;4967363;28;20961;-71
2024/04/04 05:49:49;;;;;;;6.53;2.60;;;;;;;11.03;73.00;95984.53;4966287;28;20185;-70
2024/04/04 05:52:14;;;;;;;5.30;2.57;;;;;;;11.21;72.17;95977.47;4965255;28;20197;-69
2024/04/04 05:54:40;;;;;;;8.50;2.53;;;;;;;11.07;72.21;95967.69;4962725;28;20177;-70
2024/04/04 05:57:06;;;;;;;16.73;2.67;;;;;;;10.91;72.76;95964.16;4972217;28;20273;-69
2024/04/04 05:59:32;;;;;;;5.00;2.03;;;;;;;10.80;72.99;95965.59;4972737;28;20204;-68
2024/04/04 06:01:58;;;;;;;5.23;1.57;;;;;;;10.84;73.66;95965.41;4976314;28;20677;-70
2024/04/04 06:04:25;;;;;;;4.43;2.03;;;;;;;10.77;74.00;95965.75;4970796;28;20425;-68
2024/04/04 06:06:50;;;;;;;5.33;2.37;;;;;;;10.84;73.24;95966.25;4962464;28;20369;-70
2024/04/04 06:09:16;;;;;;;10.57;5.30;;;;;;;10.89;73.76;95968.66;4968014;28;20497;-70
2024/04/04 06:11:41;;;;;;;4.10;1.40;;;;;;;10.92;73.17;95966.72;4967544;28;20510;-70
2024/04/04 06:14:06;;;;;;;5.60;2.60;;;;;;;11.01;73.37;95957.53;4966956;28;20542;-67
2024/04/04 06:16:32;;;;;;;2.20;1.53;;;;;;;11.14;72.60;95963.81;4966779;28;20209;-68
2024/04/04 06:18:58;;;;;;;2.90;1.73;;;;;;;11.18;72.66;95961.88;4967380;28;20181;-66
2024/04/04 06:21:23;;;;;;;2.03;1.33;;;;;;;11.24;72.46;95951.03;4966986;28;20211;-70
2024/04/04 06:23:49;;;;;;;5.80;1.60;;;;;;;11.13;72.82;95959.50;4967498;28;20181;-69
2024/04/04 06:26:14;;;;;;;4.60;2.10;;;;;;;11.08;73.57;95960.66;4967622;28;20613;-69
2024/04/04 06:28:40;;;;;;;6.87;2.47;;;;;;;11.28;72.53;95959.63;4966818;28;20951;-69
2024/04/04 06:31:05;;;;;;;5.47;2.60;;;;;;;11.19;72.70;95961.78;4967125;28;20197;-68
2024/04/04 06:33:30;;;;;;;3.80;1.70;;;;;;;11.25;72.43;95960.63;4967167;28;20174;-69
2024/04/04 06:35:56;;;;;;;3.00;2.20;;;;;;;11.28;72.08;95965.72;4967504;28;20291;-67
2024/04/04 06:38:21;;;;;;;2.90;2.40;;;;;;;11.30;72.64;95968.25;4968363;28;20204;-69
2024/04/04 06:40:47;;;;;;;2.10;1.40;;;;;;;11.39;72.72;95973.03;4968588;28;20864;-69
2024/04/04 06:43:12;;;;;;;2.60;1.70;;;;;;;11.60;71.80;95971.84;4969133;28;20199;-69
2024/04/04 06:45:38;;;;;;;3.47;1.50;;;;;;;11.57;71.42;95972.00;4973588;28;20811;-69
2024/04/04 06:48:03;;;;;;;4.23;1.60;;;;;;;11.65;71.04;95966.34;4973640;28;20212;-69
2024/04/04 06:50:29;;;;;;;10.03;1.70;;;;;;;11.86;70.77;95967.78;4974995;28;20505;-68
2024/04/04 06:52:55;;;;;;;4.27;2.80;;;;;;;11.88;70.74;95972.13;4977195;28;20204;-69
2024/04/04 06:55:21;;;;;;;5.10;1.60;;;;;;;11.93;70.79;95970.94;4977121;28;20197;-68
2024/04/04 06:57:47;;;;;;;4.97;3.00;;;;;;;12.00;70.61;95959.16;4968850;28;20257;-68
2024/04/04 07:00:14;;;;;;;4.47;2.10;;;;;;;12.05;70.61;95958.91;4968277;28;20182;-68
2024/04/04 07:02:39;;;;;;;5.63;1.60;;;;;;;12.03;69.31;95966.03;4966380;28;20464;-69
2024/04/04 07:05:09;;;;;;;5.30;2.03;;;;;;;12.18;69.94;95967.75;4967326;28;20512;-69
2024/04/04 07:07:35;;;;;;;47.23;29.27;;;;;;;12.26;69.48;95972.59;4977120;28;20190;-67
2024/04/04 07:10:03;;;;;;;4.73;2.40;;;;;;;12.82;68.07;95963.16;4982172;28;20726;-67
2024/04/04 07:12:29;;;;;;;4.83;1.97;;;;;;;13.02;66.83;95966.38;4978438;28;20209;-68
2024/04/04 07:14:54;;;;;;;7.83;2.37;;;;;;;13.46;64.93;95957.56;4970378;28;20469;-67
2024/04/04 07:17:20;;;;;;;3.60;1.87;;;;;;;13.53;65.56;95962.34;4972771;28;20811;-67
2024/04/04 07:19:45;;;;;;;3.10;1.87;;;;;;;13.62;64.55;95958.28;4965918;28;20181;-70
2024/04/04 07:22:11;;;;;;;6.50;2.10;;;;;;;13.58;64.72;95956.78;4969606;28;20610;-68
2024/04/04 07:24:36;;;;;;;4.30;1.80;;;;;;;13.66;64.58;95957.16;4963412;28;20183;-68
2024/04/04 07:27:01;;;;;;;6.93;1.83;;;;;;;14.26;63.22;95949.81;4963947;28;20688;-69
2024/04/04 07:29:27;;;;;;;7.37;2.07;;;;;;;15.09;59.89;95942.44;4969746;28;20192;-69
2024/04/04 07:31:52;;;;;;;4.10;1.30;;;;;;;15.85;57.51;95938.00;4973551;28;20198;-68
2024/04/04 07:34:18;;;;;;;80.60;37.50;;;;;;;16.43;55.25;95930.25;4984626;28;20197;-68
2024/04/04 07:36:43;;;;;;;15.40;10.20;;;;;;;16.40;55.81;95927.84;4999649;28;20200;-69
2024/04/04 07:39:09;;;;;;;6.77;2.10;;;;;;;15.81;56.60;95918.88;4980163;28;20197;-70
2024/04/04 07:41:36;;;;;;;6.93;1.97;;;;;;;15.76;56.83;95920.19;4977333;28;20197;-65
2024/04/04 07:44:01;;;;;;;3.37;1.50;;;;;;;15.12;58.61;95931.69;4971737;28;20424;-67
2024/04/04 07:46:28;;;;;;;7.80;1.77;;;;;;;15.12;59.15;95931.69;4972104;28;20455;-69
2024/04/04 07:48:54;;;;;;;4.27;1.70;;;;;;;15.32;58.18;95934.72;4972007;28;20408;-69
2024/04/04 07:51:21;;;;;;;7.33;1.50;;;;;;;14.88;59.17;95934.25;4971288;28;20626;-68
2024/04/04 07:53:48;;;;;;;6.93;1.70;;;;;;;14.86;59.42;95940.53;4971559;28;20428;-68
2024/04/04 07:56:14;;;;;;;2.97;1.73;;;;;;;14.67;60.18;95954.16;4971501;28;20457;-69
2024/04/04 07:58:39;;;;;;;5.70;1.67;;;;;;;14.51;60.81;95952.53;4971542;28;20415;-68
2024/04/04 08:01:05;;;;;;;3.20;1.53;;;;;;;14.46;60.73;95954.63;4970211;28;20201;-68
2024/04/04 08:03:32;;;;;;;4.90;1.67;;;;;;;14.36;61.03;95941.19;4971558;28;20217;-68
2024/04/04 08:05:57;;;;;;;18.60;8.27;;;;;;;14.43;60.93;95957.44;4970112;28;20233;-69
2024/04/04 08:08:23;;;;;;;4.30;2.23;;;;;;;14.34;61.24;95952.81;4970069;28;20976;-68
2024/04/04 08:10:51;;;;;;;5.40;1.50;;;;;;;14.37;61.52;95956.06;4971551;28;20178;-69
2024/04/04 08:13:17;;;;;;;2.30;1.70;;;;;;;14.43;61.31;95960.09;4971350;28;20185;-69
2024/04/04 08:15:43;;;;;;;2.80;1.60;;;;;;;14.64;60.82;95949.09;4969085;28;20461;-68
2024/04/04 08:18:08;;;;;;;4.03;1.40;;;;;;;14.70;60.14;95948.69;4971697;28;20271;-69
2024/04/04 08:20:33;;;;;;;8.83;1.97;;;;;;;14.65;59.51;95948.16;4969476;28;20177;-66
2024/04/04 08:23:00;;;;;;;7.60;2.03;;;;;;;14.64;59.79;95952.56;4966045;28;20189;-69
2024/04/04 08:25:26;;;;;;;5.57;1.50;;;;;;;14.68;59.86;95958.50;4970232;28;20193;-67
2024/04/04 08:27:51;;;;;;;4.10;1.60;;;;;;;14.46;60.27;95965.19;4970432;28;20425;-67
2024/04/04 08:30:17;;;;;;;1.63;1.10;;;;;;;14.29;60.47;95970.72;4970957;28;20177;-69
2024/04/04 08:32:43;;;;;;;8.53;1.30;;;;;;;14.36;59.93;95964.97;4963353;28;20329;-68
2024/04/04 08:35:09;;;;;;;3.00;1.93;;;;;;;14.33;59.94;95964.28;4973516;28;20209;-70
2024/04/04 08:37:38;;;;;;;7.53;1.70;;;;;;;14.40;60.15;95970.88;4966583;28;20533;-68
2024/04/04 08:40:04;;;;;;;25.33;4.20;;;;;;;14.83;59.00;95962.75;4976746;28;20416;-67
2024/04/04 08:42:29;;;;;;;14.23;2.43;;;;;;;14.88;58.73;95968.56;4979210;28;20436;-70
2024/04/04 08:44:56;;;;;;;6.80;1.70;;;;;;;15.07;57.91;95960.25;4977855;28;20732;-68
2024/04/04 08:47:23;;;;;;;5.70;1.30;;;;;;;15.53;56.30;95966.75;4978363;28;20237;-68
2024/04/04 08:49:50;;;;;;;3.53;1.40;;;;;;;16.01;55.18;95949.19;4952964;29;20485;-66
2024/04/04 08:52:15;;;;;;;3.70;1.20;;;;;;;16.27;54.16;95944.63;4958837;28;20988;-69
2024/04/04 08:54:41;;;;;;;5.87;1.93;;;;;;;16.13;53.88;95944.78;4970858;28;20464;-69
2024/04/04 08:57:08;;;;;;;15.43;2.40;;;;;;;16.13;53.82;95958.03;4969910;28;20190;-68
2024/04/04 08:59:33;;;;;;;6.40;1.70;;;;;;;16.01;54.49;95964.22;4969732;28;20420;-68
2024/04/04 09:02:00;;;;;;;12.47;2.20;;;;;;;16.01;53.99;95966.88;4963419;28;20465;-69
2024/04/04 09:04:30;;;;;;;5.03;2.10;;;;;;;15.71;53.72;95964.63;4970250;28;20847;-70
2024/04/04 09:06:55;;;;;;;4.10;1.70;;;;;;;15.39;55.12;95957.97;4969259;28;20837;-68
2024/04/04 09:09:21;;;;;;;2.43;1.30;;;;;;;15.18;54.93;95956.84;4970108;28;21008;-68
2024/04/04 09:11:47;;;;;;;3.07;1.30;;;;;;;15.21;54.89;95952.19;4970889;28;20269;-67
2024/04/04 09:14:15;;;;;;;6.10;1.50;;;;;;;15.06;55.43;95947.13;4969323;28;20186;-68
2024/04/04 09:16:41;;;;;;;2.80;1.20;;;;;;;15.10;55.24;95949.44;4958646;28;20580;-68
2024/04/04 09:19:12;;;;;;;4.30;1.30;;;;;;;14.98;55.73;95960.88;4966048;28;20559;-69
2024/04/04 09:21:39;;;;;;;4.23;1.67;;;;;;;15.00;55.81;95954.53;4969732;28;20925;-70
2024/04/04 09:24:08;;;;;;;3.00;1.23;;;;;;;15.08;56.12;95946.06;4969582;28;20452;-69
2024/04/04 09:26:35;;;;;;;3.90;1.73;;;;;;;15.20;56.55;95947.84;4968138;28;20409;-69
2024/04/04 09:29:02;;;;;;;4.20;1.63;;;;;;;15.19;56.24;95969.13;4964215;28;20445;-69
2024/04/04 09:31:29;;;;;;;3.30;1.27;;;;;;;15.10;56.17;95951.25;4967531;28;20476;-68
2024/04/04 09:33:56;;;;;;;5.10;1.70;;;;;;;15.17;56.62;95952.50;4980432;28;20904;-70
2024/04/04 09:36:25;;;;;;;5.17;1.67;;;;;;;15.18;56.09;95952.38;4981522;28;20467;-68
2024/04/04 09:38:54;;;;;;;9.33;2.17;;;;;;;15.29;56.05;95948.19;4988929;28;20436;-69
2024/04/04 09:41:20;;;;;;;5.83;1.37;;;;;;;15.47;55.89;95952.16;4988898;28;21197;-71
2024/04/04 09:43:46;;;;;;;6.93;2.27;;;;;;;15.65;55.11;95950.00;4988189;28;20523;-69
2024/04/04 09:46:14;;;;;;;4.80;1.50;;;;;;;15.72;54.54;95955.75;4989297;28;21019;-69
2024/04/04 09:48:43;;;;;;;11.07;1.90;;;;;;;15.76;55.48;95957.22;4987171;28;20285;-68
2024/04/04 09:51:09;;;;;;;5.53;1.67;;;;;;;15.72;55.03;95966.31;4989690;28;20463;-68
2024/04/04 09:53:38;;;;;;;5.73;1.60;;;;;;;15.78;55.10;95965.88;4980600;28;20413;-69
2024/04/04 09:56:05;;;;;;;2.60;1.40;;;;;;;15.62;55.02;95968.75;4980732;28;20469;-68
2024/04/04 09:58:32;;;;;;;3.77;1.50;;;;;;;15.44;55.33;95963.78;4985809;28;20795;-70
2024/04/04 10:01:09;;;;;;;3.90;1.70;;;;;;;15.21;55.83;95962.78;4981209;28;20448;-68
2024/04/04 10:03:36;;;;;;;2.87;1.67;;;;;;;15.14;56.37;95958.88;4970007;28;20447;-67
2024/04/04 10:06:01;;;;;;;4.33;1.80;;;;;;;15.43;56.74;95961.28;4975736;28;20432;-69
2024/04/04 10:08:29;;;;;;;8.63;3.17;;;;;;;15.29;56.15;95964.03;4977341;28;20424;-69
2024/04/04 10:11:04;;;;;;;4.80;1.47;;;;;;;15.17;56.28;95949.88;4977121;28;20341;-67
2024/04/04 10:13:30;;;;;;;6.60;1.40;;;;;;;15.28;56.76;95959.69;4978827;28;20429;-68
2024/04/04 10:15:57;;;;;;;2.83;1.57;;;;;;;15.14;57.02;95952.72;4978328;28;20919;-70
2024/04/04 10:18:22;;;;;;;4.63;1.50;;;;;;;15.17;56.85;95956.00;4965367;28;20184;-67
2024/04/04 10:20:51;;;;;;;15.70;4.90;;;;;;;15.32;56.73;95954.06;4965661;28;20437;-69
2024/04/04 10:23:17;;;;;;;21.63;8.50;;;;;;;15.20;57.03;95952.28;4967704;28;20182;-68
2024/04/04 10:25:43;;;;;;;23.93;14.20;;;;;;;15.37;56.79;95951.13;4965465;28;20445;-68
2024/04/04 10:28:09;;;;;;;12.73;2.10;;;;;;;15.35;56.72;95948.56;4973262;28;20945;-68
2024/04/04 10:30:39;;;;;;;6.97;1.50;;;;;;;15.39;56.40;95938.63;4983528;28;20423;-69
2024/04/04 10:33:11;;;;;;;7.40;2.23;;;;;;;15.28;56.71;95934.09;4967723;28;20424;-69
2024/04/04 10:35:37;;;;;;;6.57;1.77;;;;;;;15.29;56.41;95941.09;4967923;28;20489;-69
2024/04/04 10:38:06;;;;;;;2.70;1.50;;;;;;;15.17;56.36;95944.59;4955005;28;20574;-69
2024/04/04 10:40:32;;;;;;;3.53;1.90;;;;;;;15.18;55.89;95941.81;4967505;28;20178;-68
2024/04/04 10:42:57;;;;;;;3.80;1.50;;;;;;;15.22;56.05;95937.19;4966692;28;20429;-68
2024/04/04 10:45:29;;;;;;;4.23;1.90;;;;;;;15.15;56.58;95928.00;4981600;28;20197;-67
2024/04/04 10:47:56;;;;;;;4.60;1.60;;;;;;;15.21;56.31;95935.47;4967133;28;20276;-67
2024/04/04 10:50:21;;;;;;;14.67;3.00;;;;;;;15.23;56.25;95937.06;4967035;28;20453;-69
2024/04/04 10:52:47;;;;;;;3.63;1.67;;;;;;;15.28;55.91;95928.81;4966730;28;20551;-67
2024/04/04 10:55:13;;;;;;;5.10;1.40;;;;;;;15.40;55.51;95932.38;4966774;28;20263;-69
2024/04/04 10:57:39;;;;;;;3.73;1.70;;;;;;;15.48;55.99;95934.50;4967287;28;20213;-67
2024/04/04 11:00:13;;;;;;;6.30;1.50;;;;;;;15.67;55.29;95934.88;4967633;28;20260;-68
2024/04/04 11:02:52;;;;;;;3.43;1.40;;;;;;;15.90;54.27;95927.09;4967290;28;21062;-68
2024/04/04 11:05:18;;;;;;;2.87;1.10;;;;;;;16.06;53.16;95927.66;4967249;28;20397;-67
2024/04/04 11:07:45;;;;;;;3.30;1.60;;;;;;;16.22;53.12;95922.94;4967068;28;20412;-67
2024/04/04 11:10:11;;;;;;;35.80;5.53;;;;;;;16.04;52.55;95927.81;4981981;28;20438;-70
2024/04/04 11:12:37;;;;;;;5.07;1.70;;;;;;;15.99;53.16;95937.00;4965810;28;20890;-67
2024/04/04 11:15:05;;;;;;;2.80;1.60;;;;;;;16.07;52.90;95932.03;4967197;28;20181;-67
2024/04/04 11:17:32;;;;;;;93.40;35.33;;;;;;;16.15;53.64;95928.81;4966996;28;20493;-69
2024/04/04 11:20:14;;;;;;;41.27;15.90;;;;;;;16.15;52.79;95932.28;4967187;28;20419;-68
2024/04/04 11:22:40;;;;;;;7.10;2.60;;;;;;;15.98;53.24;95940.63;4974142;28;20557;-69
2024/04/04 11:25:07;;;;;;;4.17;1.87;;;;;;;15.84;54.13;95939.81;4967087;28;20520;-68
2024/04/04 11:27:33;;;;;;;6.00;2.30;;;;;;;15.78;54.26;95942.06;4965442;28;21000;-68